Montreal Mirabel, Quebec

12:14 PM EDT on October 24, 2014 (GMT -0400)
Montreal International (Mirabel) | Change Station
CLOSE
Current Station
Airport
Location: Montreal Mirabel,
Elevation: 269 ft
Nearby Weather Stations

Elev 269 ft 45.68 °N, 74.04 °W | Updated 14 minutes ago

Mostly Cloudy
Mostly Cloudy
54 °F
Feels Like 54 °F
N
5
Wind Variable Wind from NE

Today is forecast to be nearly the same temperature as yesterday.

Today
High -- | Low -- °F
--% Chance of Precip.
Yesterday
High -- | Low -- °F
Precip. -- in
7:24 AM 5:55 PM
New Moon, 1% visible
Pressure 29.91 in
Visibility 45.0 miles
Clouds Mostly Cloudy 4000 ft
Mostly Cloudy 8000 ft
Mostly Cloudy 25000 ft
Dew Point 39 °F
Humidity 58%
Rainfall 0.00 in
Snow Depth Not available.
UV 2 out of 12
Pollen Not available.
Air Quality Not available.
Flu Activity Not available.
METAR CYMX 241600Z 05004KT 020V090 45SM BKN040 BKN080 BKN250 12/04 A2990 RMK SC5AC1CI1 SLP126

More Conditions Fewer Conditions

Pressure 29.91 in
Visibility 45.0 miles
Clouds Mostly Cloudy 4000 ft
Mostly Cloudy 8000 ft
Mostly Cloudy 25000 ft
Dew Point 39 °F
Humidity 58%
Rainfall 0.00 in
Snow Depth Not available.
UV 2 out of 12
Pollen Not available.
Air Quality Not available.
Flu Activity Not available.
METAR CYMX 241600Z 05004KT 020V090 45SM BKN040 BKN080 BKN250 12/04 A2990 RMK SC5AC1CI1 SLP126

More Conditions Fewer Conditions

10-Day Weather Forecast

Almanac

Astronomy

Oct. 24, 2014 Rise Set
Actual Time 7:24 AM EDT 5:55 PM EDT
Civil Twilight 6:54 AM EDT 6:25 PM EDT
Nautical Twilight 6:19 AM EDT 7:00 PM EDT
Astronomical Twilight 5:45 AM EDT 7:34 PM EDT
Moon 8:02 AM EDT 6:31 PM EDT
Length of Visible Light 11h 31m
Length of Day
10h 30m
Tomorrow will be 3m 0s shorter.
New Moon, 1% of the Moon is Illuminated
Today
New Moon
Oct 30
First Quarter
Nov 6
Full
Nov 14
Last Quarter
Nov 22
New

Today's Extremes

Country Highs Country Lows

Community

WunderPhotos

Upload Photos

1,764,600 photos uploaded!

WunderBlogs® & News

Nearby

Snow Depth

Not available.

Earthquake Activity

City Distance Mag. Time & Date
No recent earthquake activity has been reported nearby.
Minimum magnitude displayed is 2.5.

Coastal Water Temperatures

Place Temperature
No Stations Reporting

Nearby Weather Stations